createdAt,value
2023-04-04T00:00:26.440Z,72.76
2023-04-04T00:02:50.929Z,71.75
2023-04-04T00:05:14.703Z,72.30
2023-04-04T00:07:39.812Z,72.33
2023-04-04T00:10:03.645Z,73.77
2023-04-04T00:12:28.615Z,72.73
2023-04-04T00:14:53.885Z,73.62
2023-04-04T00:17:17.772Z,73.45
2023-04-04T00:19:41.516Z,74.59
2023-04-04T00:22:05.472Z,75.31
2023-04-04T00:24:30.735Z,76.58
2023-04-04T00:26:54.402Z,76.48
2023-04-04T00:29:18.611Z,76.28
2023-04-04T00:31:42.305Z,76.48
2023-04-04T00:34:06.135Z,77.00
2023-04-04T00:36:29.776Z,74.65
2023-04-04T00:38:53.509Z,73.61
2023-04-04T00:41:18.654Z,76.59
2023-04-04T00:43:42.602Z,75.39
2023-04-04T00:46:06.914Z,75.01
2023-04-04T00:48:31.390Z,75.70
2023-04-04T00:50:55.040Z,76.08
2023-04-04T00:53:18.887Z,75.62
2023-04-04T00:55:44.012Z,74.77
2023-04-04T00:58:09.216Z,74.70
2023-04-04T01:00:34.939Z,74.87
2023-04-04T01:02:58.765Z,74.95
2023-04-04T01:05:22.544Z,73.62
2023-04-04T01:07:46.331Z,73.48
2023-04-04T01:10:12.366Z,75.11
2023-04-04T01:12:36.716Z,74.33
2023-04-04T01:15:02.097Z,74.17
2023-04-04T01:17:27.230Z,75.81
2023-04-04T01:20:02.556Z,76.66
2023-04-04T01:22:33.402Z,74.14
2023-04-04T01:24:58.645Z,73.91
2023-04-04T01:27:26.224Z,74.95
2023-04-04T01:29:54.613Z,73.10
2023-04-04T01:32:22.184Z,74.30
2023-04-04T01:34:55.553Z,74.39
2023-04-04T01:37:29.308Z,73.36
2023-04-04T01:39:59.189Z,73.39
2023-04-04T01:42:25.502Z,72.14
2023-04-04T01:44:56.119Z,76.19
2023-04-04T01:47:21.999Z,76.28
2023-04-04T01:49:45.731Z,77.54
2023-04-04T01:52:10.629Z,78.02
2023-04-04T01:54:36.129Z,78.36
2023-04-04T01:56:59.893Z,77.44
2023-04-04T01:59:25.046Z,77.27
2023-04-04T02:01:48.909Z,79.28
2023-04-04T02:04:13.070Z,78.11
2023-04-04T02:06:36.909Z,77.42
2023-04-04T02:09:01.007Z,75.85
2023-04-04T02:11:25.178Z,76.18
2023-04-04T02:13:48.953Z,75.22
2023-04-04T02:16:17.044Z,74.23
2023-04-04T02:18:40.789Z,74.75
2023-04-04T02:21:04.650Z,74.15
2023-04-04T02:23:28.337Z,74.08
2023-04-04T02:25:52.239Z,75.17
2023-04-04T02:28:15.937Z,75.58
2023-04-04T02:30:39.882Z,75.37
2023-04-04T02:33:05.342Z,74.08
2023-04-04T02:35:29.121Z,74.44
2023-04-04T02:37:52.796Z,74.38
2023-04-04T02:40:22.448Z,75.11
2023-04-04T02:42:46.575Z,75.00
2023-04-04T02:45:14.460Z,74.35
2023-04-04T02:47:51.357Z,75.89
2023-04-04T02:50:19.835Z,76.73
2023-04-04T02:52:50.501Z,76.62
2023-04-04T02:55:14.504Z,74.66
2023-04-04T02:57:40.465Z,75.08
2023-04-04T03:00:04.632Z,76.20
2023-04-04T03:02:28.699Z,75.66
2023-04-04T03:04:52.698Z,75.37
2023-04-04T03:07:17.938Z,75.06
2023-04-04T03:09:45.143Z,74.97
2023-04-04T03:12:09.157Z,77.01
2023-04-04T03:14:33.113Z,77.08
2023-04-04T03:16:57.695Z,76.32
2023-04-04T03:19:21.560Z,75.73
2023-04-04T03:21:48.720Z,76.52
2023-04-04T03:24:13.897Z,75.95
2023-04-04T03:26:37.578Z,75.54
2023-04-04T03:29:04.350Z,75.15
2023-04-04T03:31:28.174Z,75.59
2023-04-04T03:33:52.011Z,74.39
2023-04-04T03:36:16.389Z,75.20
2023-04-04T03:38:40.244Z,76.05
2023-04-04T03:41:05.663Z,76.14
2023-04-04T03:43:29.585Z,74.69
2023-04-04T03:45:54.122Z,76.86
2023-04-04T03:48:17.990Z,76.98
2023-04-04T03:50:41.951Z,75.87
2023-04-04T03:53:05.924Z,75.71
2023-04-04T03:55:29.658Z,75.76
2023-04-04T03:57:59.023Z,74.43
2023-04-04T04:00:23.049Z,74.79
2023-04-04T04:02:46.946Z,74.75
2023-04-04T04:05:11.160Z,74.29
2023-04-04T04:07:34.943Z,73.98
2023-04-04T04:09:59.283Z,73.28
2023-04-04T04:12:23.746Z,74.63
2023-04-04T04:14:49.852Z,74.19
2023-04-04T04:17:13.613Z,74.75
2023-04-04T04:19:37.256Z,75.07
2023-04-04T04:22:01.140Z,74.88
2023-04-04T04:24:24.924Z,75.62
2023-04-04T04:26:48.654Z,76.25
2023-04-04T04:29:13.401Z,77.87
2023-04-04T04:31:39.789Z,76.52
2023-04-04T04:34:07.626Z,76.65
2023-04-04T04:36:32.684Z,75.83
2023-04-04T04:39:19.365Z,78.08
2023-04-04T04:42:15.219Z,77.24
2023-04-04T04:44:46.095Z,78.21
2023-04-04T04:47:12.008Z,77.04
2023-04-04T04:49:35.667Z,76.74
2023-04-04T04:52:03.539Z,76.66
2023-04-04T04:54:27.785Z,78.08
2023-04-04T04:56:52.339Z,77.53
2023-04-04T04:59:16.841Z,77.94
2023-04-04T05:01:41.517Z,77.52
2023-04-04T05:04:06.949Z,78.23
2023-04-04T05:06:39.326Z,76.82
2023-04-04T05:09:05.794Z,78.26
2023-04-04T05:11:33.497Z,76.04
2023-04-04T05:13:59.647Z,76.13
2023-04-04T05:16:25.912Z,75.53
2023-04-04T05:18:53.795Z,75.47
2023-04-04T05:21:19.738Z,78.13
2023-04-04T05:23:45.720Z,78.05
2023-04-04T05:26:11.049Z,77.53
2023-04-04T05:28:36.615Z,80.79
2023-04-04T05:31:02.732Z,79.41
2023-04-04T05:33:28.556Z,80.61
2023-04-04T05:36:11.530Z,79.81
2023-04-04T05:38:40.976Z,79.59
2023-04-04T05:41:05.245Z,80.16
2023-04-04T05:43:29.020Z,80.54
2023-04-04T05:46:04.574Z,79.42
2023-04-04T05:48:34.659Z,80.30
2023-04-04T05:50:58.738Z,81.79
2023-04-04T05:53:36.144Z,82.21
2023-04-04T05:56:02.317Z,81.88
2023-04-04T05:58:28.478Z,81.00
2023-04-04T06:00:54.951Z,81.72
2023-04-04T06:03:21.205Z,82.78
2023-04-04T06:05:46.096Z,82.19
2023-04-04T06:08:09.850Z,81.87
2023-04-04T06:10:33.569Z,79.55
2023-04-04T06:12:58.698Z,77.14
2023-04-04T06:15:22.641Z,76.52
2023-04-04T06:17:47.608Z,72.42
2023-04-04T06:20:12.872Z,69.37
2023-04-04T06:22:37.507Z,67.43
2023-04-04T06:25:02.161Z,65.87
2023-04-04T06:27:27.551Z,63.22
2023-04-04T06:29:53.109Z,60.46
2023-04-04T06:32:19.190Z,59.58
2023-04-04T06:34:43.537Z,58.32
2023-04-04T06:37:08.572Z,56.82
2023-04-04T06:39:40.045Z,55.83
2023-04-04T06:42:09.396Z,54.34
2023-04-04T06:44:33.660Z,53.04
2023-04-04T06:46:58.863Z,51.23
2023-04-04T06:49:22.473Z,51.87
2023-04-04T06:51:46.898Z,49.63
2023-04-04T06:54:11.594Z,49.85
2023-04-04T06:56:35.319Z,48.00
2023-04-04T06:58:59.007Z,48.97
2023-04-04T07:01:22.797Z,48.98
2023-04-04T07:03:47.865Z,47.95
2023-04-04T07:06:11.873Z,46.70
2023-04-04T07:08:36.894Z,45.69
2023-04-04T07:11:01.045Z,43.73
2023-04-04T07:13:24.755Z,42.00
2023-04-04T07:15:50.315Z,43.16
2023-04-04T07:18:13.942Z,44.01
2023-04-04T07:20:39.201Z,44.44
2023-04-04T07:23:02.926Z,44.69
2023-04-04T07:25:27.000Z,43.70
2023-04-04T07:27:55.152Z,44.42
2023-04-04T07:30:26.551Z,43.89
2023-04-04T07:32:50.254Z,45.02
2023-04-04T07:35:13.982Z,44.54
2023-04-04T07:37:39.625Z,46.27
2023-04-04T07:40:03.259Z,47.20
2023-04-04T07:42:27.912Z,46.22
2023-04-04T07:44:51.624Z,47.49
2023-04-04T07:47:15.175Z,47.00
2023-04-04T07:49:39.006Z,46.41
2023-04-04T07:52:03.357Z,46.68
2023-04-04T07:54:28.486Z,46.43
2023-04-04T07:56:52.055Z,45.57
2023-04-04T07:59:15.795Z,45.80
2023-04-04T08:01:39.461Z,45.48
2023-04-04T08:04:03.245Z,46.62
2023-04-04T08:06:27.313Z,47.03
2023-04-04T08:08:52.327Z,46.86
2023-04-04T08:11:17.595Z,47.56
2023-04-04T08:13:41.728Z,47.60
2023-04-04T08:16:06.361Z,45.78
2023-04-04T08:18:30.030Z,47.30
2023-04-04T08:20:53.620Z,46.09
2023-04-04T08:23:17.267Z,46.12
2023-04-04T08:25:40.851Z,46.43
2023-04-04T08:28:06.264Z,47.67
2023-04-04T08:30:29.821Z,46.75
2023-04-04T08:32:53.546Z,47.55
2023-04-04T08:35:17.533Z,48.04
2023-04-04T08:37:45.382Z,45.69
2023-04-04T08:40:10.645Z,46.72
2023-04-04T08:42:36.792Z,46.62
2023-04-04T08:45:05.369Z,46.07
2023-04-04T08:47:32.441Z,45.45
2023-04-04T08:49:57.415Z,48.11
2023-04-04T08:52:25.816Z,45.59
2023-04-04T08:54:51.191Z,46.11
2023-04-04T08:57:14.966Z,49.08
2023-04-04T08:59:38.894Z,45.17
2023-04-04T09:02:18.938Z,45.10
2023-04-04T09:04:51.336Z,46.80
2023-04-04T09:07:23.259Z,47.58
2023-04-04T09:09:48.640Z,46.06
2023-04-04T09:12:12.774Z,45.93
2023-04-04T09:14:40.481Z,44.66
2023-04-04T09:17:05.553Z,44.96
2023-04-04T09:19:29.466Z,46.54
2023-04-04T09:21:53.136Z,44.05
2023-04-04T09:24:17.561Z,43.37
2023-04-04T09:26:51.567Z,43.84
2023-04-04T09:29:15.603Z,43.32
2023-04-04T09:31:39.363Z,43.29
2023-04-04T09:34:04.597Z,41.78
2023-04-04T09:36:28.236Z,40.91
2023-04-04T09:38:55.761Z,44.46
2023-04-04T09:41:20.926Z,42.00
2023-04-04T09:43:47.376Z,43.53
2023-04-04T09:46:11.847Z,42.75
2023-04-04T09:48:37.137Z,43.05
2023-04-04T09:51:05.491Z,41.90
2023-04-04T09:53:29.351Z,44.33
2023-04-04T09:55:54.625Z,43.09
2023-04-04T09:58:20.429Z,40.62
2023-04-04T10:00:48.607Z,41.39
2023-04-04T10:03:15.725Z,39.31
2023-04-04T10:05:39.474Z,41.77
2023-04-04T10:08:16.922Z,39.95
2023-04-04T10:10:58.907Z,40.09
2023-04-04T10:13:32.484Z,39.15
2023-04-04T10:15:57.708Z,40.49
2023-04-04T10:18:23.401Z,39.24
2023-04-04T10:20:49.035Z,39.91
2023-04-04T10:23:16.610Z,40.33
2023-04-04T10:25:40.270Z,42.18
2023-04-04T10:28:04.022Z,43.66
2023-04-04T10:30:27.668Z,39.58
2023-04-04T10:33:03.025Z,38.20
2023-04-04T10:35:28.465Z,37.61
2023-04-04T10:38:02.152Z,38.07
2023-04-04T10:40:34.671Z,39.58
2023-04-04T10:42:59.828Z,38.93
2023-04-04T10:45:23.598Z,38.29
2023-04-04T10:47:47.394Z,40.70
2023-04-04T10:50:12.733Z,40.58
2023-04-04T10:52:38.333Z,39.95
2023-04-04T10:55:06.349Z,37.09
2023-04-04T10:57:32.341Z,36.91
2023-04-04T11:00:00.616Z,37.22
2023-04-04T11:02:50.044Z,38.83
2023-04-04T11:05:14.754Z,37.45
2023-04-04T11:07:40.365Z,36.93
2023-04-04T11:10:14.810Z,38.57
2023-04-04T11:12:46.187Z,37.55
2023-04-04T11:15:12.659Z,36.40
2023-04-04T11:17:52.919Z,36.46
2023-04-04T11:20:18.656Z,37.37
2023-04-04T11:22:42.852Z,37.19
2023-04-04T11:25:36.388Z,34.89
2023-04-04T11:28:07.204Z,36.35
2023-04-04T11:30:31.050Z,36.94
2023-04-04T11:35:23.900Z,37.63
2023-04-04T11:38:02.385Z,37.92
2023-04-04T11:40:37.437Z,36.49
2023-04-04T11:43:04.310Z,35.64
2023-04-04T11:45:28.547Z,35.90
2023-04-04T11:47:52.756Z,36.42
2023-04-04T11:50:17.653Z,35.04
2023-04-04T11:52:43.241Z,36.80
2023-04-04T11:55:17.402Z,38.82
2023-04-04T11:57:43.442Z,36.61
2023-04-04T12:00:12.312Z,36.33
2023-04-04T12:02:37.993Z,35.90
2023-04-04T12:05:02.885Z,35.34
2023-04-04T12:07:27.075Z,34.57
2023-04-04T12:09:50.786Z,36.87
2023-04-04T12:12:16.517Z,35.77
2023-04-04T12:14:41.410Z,35.64
2023-04-04T12:17:06.717Z,35.28
2023-04-04T12:19:31.752Z,35.92
2023-04-04T12:21:56.091Z,35.32
2023-04-04T12:24:20.044Z,34.10
2023-04-04T12:26:47.208Z,33.39
2023-04-04T12:29:12.925Z,35.70
2023-04-04T12:31:37.959Z,34.44
2023-04-04T12:34:03.152Z,33.49
2023-04-04T12:36:27.378Z,34.39
2023-04-04T12:39:02.345Z,34.25
2023-04-04T12:41:26.917Z,36.39
2023-04-04T12:43:51.170Z,36.64
2023-04-04T12:46:15.595Z,38.52
2023-04-04T12:48:40.056Z,38.06
2023-04-04T12:51:08.639Z,38.12
2023-04-04T12:53:33.158Z,32.96
2023-04-04T12:56:01.385Z,34.32
2023-04-04T12:58:26.794Z,35.44
2023-04-04T13:00:52.751Z,37.55
2023-04-04T13:03:17.895Z,35.02
2023-04-04T13:05:42.855Z,35.36
2023-04-04T13:08:12.090Z,36.92
2023-04-04T13:11:04.769Z,35.59
2023-04-04T13:13:37.111Z,37.35
2023-04-04T13:16:01.346Z,36.18
2023-04-04T13:18:27.793Z,33.41
2023-04-04T13:20:52.074Z,33.28
2023-04-04T13:23:17.716Z,34.33
2023-04-04T13:25:42.168Z,34.38
2023-04-04T13:28:06.077Z,35.30
2023-04-04T13:30:29.931Z,34.08
2023-04-04T13:32:53.586Z,31.87
2023-04-04T13:35:17.464Z,32.97
2023-04-04T13:37:41.108Z,34.26
2023-04-04T13:40:07.762Z,32.56
2023-04-04T13:42:31.770Z,33.96
2023-04-04T13:44:55.608Z,32.92
2023-04-04T13:47:19.232Z,33.08
2023-04-04T13:49:43.067Z,33.89
2023-04-04T13:52:06.765Z,35.03
2023-04-04T13:54:30.580Z,36.22
2023-04-04T13:56:56.565Z,33.61
2023-04-04T13:59:20.322Z,34.68
2023-04-04T14:01:44.343Z,33.90
2023-04-04T14:04:22.688Z,33.51
2023-04-04T14:06:49.430Z,33.53
2023-04-04T14:09:13.052Z,34.07
2023-04-04T14:11:36.721Z,35.36
2023-04-04T14:14:01.792Z,32.66
2023-04-04T14:16:25.542Z,33.43
2023-04-04T14:18:49.964Z,34.83
2023-04-04T14:21:13.649Z,33.17
2023-04-04T14:23:37.293Z,34.57
2023-04-04T14:26:01.218Z,33.00
2023-04-04T14:28:25.073Z,32.51
2023-04-04T14:30:51.788Z,34.55
2023-04-04T14:33:15.384Z,33.17
2023-04-04T14:35:39.401Z,31.88
2023-04-04T14:38:03.236Z,33.79
2023-04-04T14:40:27.380Z,32.42
2023-04-04T14:42:51.157Z,34.04
2023-04-04T14:45:16.073Z,35.69
2023-04-04T14:47:41.370Z,35.05
2023-04-04T14:50:05.616Z,33.77
2023-04-04T14:52:30.405Z,32.68
2023-04-04T14:54:54.158Z,33.67
2023-04-04T14:57:18.667Z,33.32
2023-04-04T14:59:42.324Z,34.53
2023-04-04T15:02:06.229Z,32.89
2023-04-04T15:04:31.564Z,33.27
2023-04-04T15:06:56.854Z,32.60
2023-04-04T15:09:20.570Z,34.56
2023-04-04T15:11:44.214Z,33.12
2023-04-04T15:14:07.912Z,33.34
2023-04-04T15:16:33.328Z,33.05
2023-04-04T15:18:57.310Z,34.38
2023-04-04T15:21:22.472Z,36.53
2023-04-04T15:23:46.267Z,35.23
2023-04-04T15:26:09.911Z,36.45
2023-04-04T15:28:33.768Z,35.42
2023-04-04T15:30:57.754Z,36.50
2023-04-04T15:33:21.627Z,36.03
2023-04-04T15:35:45.379Z,36.04
2023-04-04T15:38:10.574Z,36.60
2023-04-04T15:40:34.217Z,36.99
2023-04-04T15:42:58.293Z,37.44
2023-04-04T15:45:21.936Z,37.04
2023-04-04T15:47:45.792Z,36.94
2023-04-04T15:50:11.118Z,38.20
2023-04-04T15:52:34.860Z,38.56
2023-04-04T15:54:59.899Z,38.91
2023-04-04T15:57:23.595Z,38.76
2023-04-04T15:59:48.080Z,39.48
2023-04-04T16:02:11.775Z,38.75
2023-04-04T16:04:35.525Z,38.82
2023-04-04T16:06:59.239Z,39.55
2023-04-04T16:09:22.974Z,39.37
2023-04-04T16:11:48.150Z,39.67
2023-04-04T16:14:12.809Z,40.61
2023-04-04T16:16:36.892Z,40.47
2023-04-04T16:19:00.534Z,39.98
2023-04-04T16:21:24.321Z,39.84
2023-04-04T16:23:47.950Z,41.19
2023-04-04T16:26:12.045Z,41.10
2023-04-04T16:28:37.344Z,40.80
2023-04-04T16:31:01.362Z,41.04
2023-04-04T16:33:25.122Z,41.00
2023-04-04T16:35:49.679Z,41.96
2023-04-04T16:38:13.286Z,43.03
2023-04-04T16:40:37.352Z,41.78
2023-04-04T16:43:01.058Z,41.62
2023-04-04T16:45:26.201Z,41.00
2023-04-04T16:47:49.948Z,41.18
2023-04-04T16:50:13.984Z,42.68
2023-04-04T16:52:37.657Z,41.38
2023-04-04T16:55:01.402Z,42.33
2023-04-04T16:57:25.287Z,44.28
2023-04-04T16:59:49.067Z,44.76
2023-04-04T17:02:14.258Z,43.09
2023-04-04T17:04:41.704Z,42.22
2023-04-04T17:07:06.324Z,41.79
2023-04-04T17:09:30.005Z,41.94
2023-04-04T17:11:53.752Z,42.92
2023-04-04T17:14:18.369Z,43.20
2023-04-04T17:16:43.189Z,44.23
2023-04-04T17:19:08.311Z,43.98
2023-04-04T17:21:33.493Z,42.88
2023-04-04T17:23:57.258Z,42.75
2023-04-04T17:26:21.179Z,43.46
2023-04-04T17:28:45.707Z,44.30
2023-04-04T17:31:09.374Z,44.76
2023-04-04T17:33:33.137Z,44.87
2023-04-04T17:35:58.197Z,44.24
2023-04-04T17:38:22.055Z,45.27
2023-04-04T17:40:45.666Z,45.61
2023-04-04T17:43:09.370Z,44.69
2023-04-04T17:45:33.054Z,46.30
2023-04-04T17:47:56.766Z,46.95
2023-04-04T17:50:20.634Z,46.60
2023-04-04T17:52:45.712Z,47.56
2023-04-04T17:55:11.430Z,47.82
2023-04-04T17:57:35.679Z,47.85
2023-04-04T17:59:59.251Z,48.31
2023-04-04T18:02:22.989Z,49.05
2023-04-04T18:04:47.219Z,49.26
2023-04-04T18:07:11.173Z,49.67
2023-04-04T18:09:36.423Z,49.42
2023-04-04T18:12:01.766Z,49.28
2023-04-04T18:14:25.473Z,49.59
2023-04-04T18:16:49.144Z,50.34
2023-04-04T18:19:13.326Z,51.01
2023-04-04T18:21:37.089Z,51.11
2023-04-04T18:24:00.780Z,51.03
2023-04-04T18:26:26.221Z,51.93
2023-04-04T18:28:49.918Z,51.78
2023-04-04T18:31:14.332Z,52.31
2023-04-04T18:33:38.006Z,52.27
2023-04-04T18:36:01.866Z,52.17
2023-04-04T18:38:25.998Z,51.96
2023-04-04T18:40:49.755Z,53.09
2023-04-04T18:43:14.854Z,53.31
2023-04-04T18:45:40.645Z,53.85
2023-04-04T18:48:04.508Z,53.78
2023-04-04T18:50:28.707Z,53.63
2023-04-04T18:52:52.382Z,53.46
2023-04-04T18:55:16.617Z,53.86
2023-04-04T18:57:40.254Z,54.16
2023-04-04T19:00:08.218Z,53.65
2023-04-04T19:02:34.141Z,53.93
2023-04-04T19:04:59.767Z,54.73
2023-04-04T19:07:27.921Z,55.38
2023-04-04T19:09:52.568Z,55.18
2023-04-04T19:12:16.149Z,55.72
2023-04-04T19:14:39.792Z,55.72
2023-04-04T19:17:04.888Z,55.47
2023-04-04T19:19:29.017Z,56.47
2023-04-04T19:21:52.670Z,55.90
2023-04-04T19:24:16.348Z,56.40
2023-04-04T19:26:40.028Z,57.28
2023-04-04T19:29:03.692Z,56.98
2023-04-04T19:31:30.348Z,56.93
2023-04-04T19:33:55.727Z,57.00
2023-04-04T19:36:19.460Z,57.19
2023-04-04T19:38:44.366Z,56.81
2023-04-04T19:41:13.784Z,57.74
2023-04-04T19:43:38.663Z,58.60
2023-04-04T19:46:10.176Z,58.89
2023-04-04T19:48:44.268Z,59.45
2023-04-04T19:51:11.350Z,60.17
2023-04-04T19:53:35.051Z,60.13
2023-04-04T19:55:59.077Z,59.88
2023-04-04T19:58:24.279Z,59.57
2023-04-04T20:00:47.977Z,59.66
2023-04-04T20:03:30.800Z,59.85
2023-04-04T20:06:10.066Z,60.26
2023-04-04T20:08:48.826Z,60.01
2023-04-04T20:11:14.684Z,60.24
2023-04-04T20:13:39.756Z,60.60
2023-04-04T20:16:09.697Z,60.51
2023-04-04T20:18:35.611Z,61.47
2023-04-04T20:21:10.904Z,61.13
2023-04-04T20:23:44.400Z,61.03
2023-04-04T20:26:09.620Z,60.85
2023-04-04T20:28:33.292Z,61.75
2023-04-04T20:31:03.725Z,61.77
2023-04-04T20:33:36.304Z,61.55
2023-04-04T20:36:09.619Z,61.80
2023-04-04T20:38:33.383Z,62.19
2023-04-04T20:40:57.063Z,62.00
2023-04-04T20:43:20.817Z,61.77
2023-04-04T20:45:46.841Z,61.88
2023-04-04T20:48:36.202Z,62.35
2023-04-04T20:50:59.912Z,62.81
2023-04-04T20:53:27.487Z,62.83
2023-04-04T20:55:51.521Z,63.36
2023-04-04T20:58:28.818Z,62.75
2023-04-04T21:00:52.792Z,63.32
2023-04-04T21:03:37.346Z,64.07
2023-04-04T21:06:10.704Z,64.14
2023-04-04T21:08:43.585Z,64.01
2023-04-04T21:11:07.956Z,64.29
2023-04-04T21:13:36.752Z,63.85
2023-04-04T21:16:02.651Z,64.16
2023-04-04T21:18:31.718Z,63.92
2023-04-04T21:21:18.817Z,64.09
2023-04-04T21:23:49.989Z,64.04
2023-04-04T21:26:32.034Z,63.42
2023-04-04T21:28:56.809Z,63.26
2023-04-04T21:31:24.361Z,65.06
2023-04-04T21:33:50.446Z,64.49
2023-04-04T21:36:27.486Z,64.20
2023-04-04T21:38:53.966Z,64.41
2023-04-04T21:41:25.881Z,64.74
2023-04-04T21:43:49.607Z,64.47
2023-04-04T21:46:13.329Z,65.07
2023-04-04T21:48:37.098Z,66.23
2023-04-04T21:51:00.780Z,65.69
2023-04-04T21:53:24.522Z,65.00
2023-04-04T21:55:49.691Z,64.70
2023-04-04T21:58:14.380Z,65.61
2023-04-04T22:00:38.038Z,65.36
2023-04-04T22:03:01.883Z,65.79
2023-04-04T22:05:38.137Z,65.84
2023-04-04T22:08:02.648Z,65.99
2023-04-04T22:10:27.179Z,66.22
2023-04-04T22:12:52.300Z,65.36
2023-04-04T22:15:19.108Z,65.93
2023-04-04T22:17:42.826Z,66.86
2023-04-04T22:20:11.201Z,66.69
2023-04-04T22:22:37.068Z,67.34
2023-04-04T22:25:05.046Z,67.31
2023-04-04T22:27:28.780Z,66.48
2023-04-04T22:29:53.952Z,67.31
2023-04-04T22:32:17.676Z,66.54
2023-04-04T22:34:41.327Z,66.53
2023-04-04T22:37:05.551Z,67.39
2023-04-04T22:39:30.823Z,67.67
2023-04-04T22:41:54.573Z,68.39
2023-04-04T22:44:18.257Z,67.59
2023-04-04T22:46:43.685Z,66.51
2023-04-04T22:49:08.837Z,67.02
2023-04-04T22:51:34.935Z,67.10
2023-04-04T22:53:58.899Z,65.91
2023-04-04T22:56:22.641Z,66.55
2023-04-04T22:58:46.356Z,66.93
2023-04-04T23:01:10.130Z,66.97
2023-04-04T23:03:35.248Z,66.58
2023-04-04T23:05:59.003Z,66.82
2023-04-04T23:08:22.691Z,65.17
2023-04-04T23:10:46.550Z,65.78
2023-04-04T23:13:10.210Z,66.41
2023-04-04T23:15:37.644Z,66.31
2023-04-04T23:18:01.540Z,66.77
2023-04-04T23:20:28.002Z,65.11
2023-04-04T23:22:51.982Z,66.15
2023-04-04T23:25:15.847Z,66.70
2023-04-04T23:27:40.209Z,65.72
2023-04-04T23:30:04.922Z,64.97
2023-04-04T23:32:29.046Z,65.93
2023-04-04T23:34:52.808Z,65.69
2023-04-04T23:37:18.110Z,65.85
2023-04-04T23:39:41.961Z,66.37
2023-04-04T23:42:05.787Z,66.83
2023-04-04T23:44:29.478Z,66.49
2023-04-04T23:46:53.566Z,65.59
2023-04-04T23:49:18.034Z,66.45
2023-04-04T23:51:42.309Z,65.87
2023-04-04T23:54:08.087Z,66.75
2023-04-04T23:56:31.816Z,66.34
2023-04-04T23:58:55.596Z,65.25
